createdAt,value
2019-02-12T00:00:40.217Z,5.40
2019-02-12T00:03:10.338Z,5.60
2019-02-12T00:05:41.185Z,6.00
2019-02-12T00:08:11.643Z,6.00
2019-02-12T00:10:42.808Z,6.00
2019-02-12T00:13:16.276Z,5.90
2019-02-12T00:15:46.402Z,5.80
2019-02-12T00:18:17.699Z,5.80
2019-02-12T00:20:48.750Z,5.80
2019-02-12T00:23:18.770Z,6.00
2019-02-12T00:25:49.376Z,6.10
2019-02-12T00:28:21.052Z,6.00
2019-02-12T00:30:52.586Z,5.60
2019-02-12T00:33:22.729Z,5.50
2019-02-12T00:35:53.309Z,5.60
2019-02-12T00:38:23.340Z,5.80
2019-02-12T00:40:53.532Z,5.80
2019-02-12T00:43:23.665Z,5.90
2019-02-12T00:45:54.237Z,5.80
2019-02-12T00:48:24.281Z,5.80
2019-02-12T00:50:56.045Z,5.60
2019-02-12T00:53:25.196Z,5.60
2019-02-12T00:55:57.902Z,5.50
2019-02-12T00:58:28.210Z,5.40
2019-02-12T01:00:58.160Z,5.50
2019-02-12T01:03:29.253Z,5.70
2019-02-12T01:06:01.831Z,5.70
2019-02-12T01:08:33.847Z,5.60
2019-02-12T01:11:08.423Z,5.80
2019-02-12T01:13:38.663Z,5.50
2019-02-12T01:16:08.651Z,5.50
2019-02-12T01:18:39.577Z,5.60
2019-02-12T01:21:09.637Z,5.70
2019-02-12T01:23:41.902Z,5.80
2019-02-12T01:26:12.148Z,5.30
2019-02-12T01:28:43.026Z,5.10
2019-02-12T01:31:13.303Z,5.20
2019-02-12T01:33:43.665Z,5.20
2019-02-12T01:38:46.751Z,4.70
2019-02-12T01:41:17.863Z,4.80
2019-02-12T01:43:51.138Z,4.60
2019-02-12T01:46:21.146Z,4.60
2019-02-12T01:48:51.425Z,4.60
2019-02-12T01:51:21.835Z,4.80
2019-02-12T01:53:58.611Z,4.80
2019-02-12T01:56:28.634Z,4.70
2019-02-12T01:58:59.159Z,4.70
2019-02-12T02:01:29.004Z,4.90
2019-02-12T02:04:02.533Z,4.70
2019-02-12T02:06:37.579Z,4.70
2019-02-12T02:09:14.856Z,4.90
2019-02-12T02:11:45.936Z,4.80
2019-02-12T02:14:16.496Z,4.30
2019-02-12T02:16:46.433Z,4.40
2019-02-12T02:19:19.662Z,4.60
2019-02-12T02:21:49.745Z,4.60
2019-02-12T02:24:21.077Z,4.20
2019-02-12T02:26:51.395Z,4.30
2019-02-12T02:29:22.061Z,4.40
2019-02-12T02:31:52.961Z,4.10
2019-02-12T02:34:24.677Z,4.00
2019-02-12T02:36:57.607Z,3.90
2019-02-12T02:39:29.861Z,3.90
2019-02-12T02:42:00.125Z,3.90
2019-02-12T02:44:30.846Z,3.60
2019-02-12T02:47:01.869Z,3.80
2019-02-12T02:49:35.196Z,3.90
2019-02-12T02:52:06.247Z,3.80
2019-02-12T02:54:37.436Z,3.50
2019-02-12T02:57:07.848Z,2.80
2019-02-12T02:59:38.157Z,2.50
2019-02-12T03:02:07.756Z,2.50
2019-02-12T03:04:41.102Z,2.70
2019-02-12T03:07:12.001Z,2.80
2019-02-12T03:09:42.207Z,2.80
2019-02-12T03:12:14.671Z,2.90
2019-02-12T03:14:44.991Z,2.90
2019-02-12T03:17:18.384Z,3.10
2019-02-12T03:19:49.179Z,3.30
2019-02-12T03:22:20.038Z,3.60
2019-02-12T03:24:51.852Z,3.50
2019-02-12T03:27:22.425Z,3.60
2019-02-12T03:29:52.321Z,3.60
2019-02-12T03:32:26.273Z,3.80
2019-02-12T03:35:01.437Z,4.00
2019-02-12T03:37:32.415Z,4.00
2019-02-12T03:40:02.495Z,4.20
2019-02-12T03:42:33.109Z,4.20
2019-02-12T03:45:07.859Z,4.20
2019-02-12T03:47:38.731Z,4.10
2019-02-12T03:50:10.166Z,3.80
2019-02-12T03:52:44.850Z,3.80
2019-02-12T03:55:16.646Z,3.90
2019-02-12T03:57:52.286Z,3.80
2019-02-12T04:00:22.893Z,4.10
2019-02-12T04:03:18.520Z,4.20
2019-02-12T04:05:49.761Z,4.20
2019-02-12T04:08:20.574Z,3.90
2019-02-12T04:10:51.195Z,4.10
2019-02-12T04:13:21.685Z,4.20
2019-02-12T04:15:52.189Z,4.30
2019-02-12T04:18:23.072Z,4.20
2019-02-12T04:20:53.297Z,4.40
2019-02-12T04:23:51.578Z,4.50
2019-02-12T04:26:25.399Z,4.60
2019-02-12T04:29:02.372Z,4.60
2019-02-12T04:31:33.948Z,4.60
2019-02-12T04:34:04.351Z,4.60
2019-02-12T04:36:35.501Z,4.40
2019-02-12T04:39:06.700Z,4.40
2019-02-12T04:41:37.641Z,4.50
2019-02-12T04:44:11.046Z,4.50
2019-02-12T04:46:42.312Z,4.50
2019-02-12T04:49:13.281Z,4.20
2019-02-12T04:51:43.410Z,4.30
2019-02-12T04:54:13.999Z,4.30
2019-02-12T04:56:44.191Z,4.40
2019-02-12T04:59:15.862Z,4.60
2019-02-12T05:01:46.553Z,4.60
2019-02-12T05:04:17.486Z,4.70
2019-02-12T05:06:47.927Z,4.70
2019-02-12T05:09:20.870Z,4.70
2019-02-12T05:11:53.806Z,4.80
2019-02-12T05:14:25.566Z,4.80
2019-02-12T05:16:56.655Z,4.60
2019-02-12T05:19:27.255Z,4.60
2019-02-12T05:21:58.035Z,4.50
2019-02-12T05:24:34.910Z,4.70
2019-02-12T05:27:05.667Z,4.90
2019-02-12T05:29:37.603Z,4.80
2019-02-12T05:32:10.574Z,4.90
2019-02-12T05:34:41.269Z,5.10
2019-02-12T05:37:11.734Z,5.20
2019-02-12T05:39:42.373Z,5.10
2019-02-12T05:42:13.633Z,4.90
2019-02-12T05:44:44.295Z,5.00
2019-02-12T05:47:14.855Z,4.70
2019-02-12T05:49:45.459Z,4.80
2019-02-12T05:52:15.920Z,4.90
2019-02-12T05:54:46.253Z,4.90
2019-02-12T05:57:16.675Z,4.90
2019-02-12T05:59:47.103Z,4.80
2019-02-12T06:02:16.934Z,4.90
2019-02-12T06:04:47.248Z,4.90
2019-02-12T06:07:18.506Z,4.80
2019-02-12T06:09:48.326Z,4.70
2019-02-12T06:12:17.897Z,4.90
2019-02-12T06:14:47.526Z,5.00
2019-02-12T06:17:17.402Z,4.90
2019-02-12T06:19:47.210Z,4.70
2019-02-12T06:22:20.808Z,4.80
2019-02-12T06:24:51.609Z,4.80
2019-02-12T06:27:25.591Z,4.90
2019-02-12T06:29:55.434Z,5.00
2019-02-12T06:32:25.467Z,5.10
2019-02-12T06:34:55.656Z,5.20
2019-02-12T06:37:29.394Z,5.20
2019-02-12T06:39:59.573Z,5.20
2019-02-12T06:42:29.208Z,5.30
2019-02-12T06:44:59.133Z,5.30
2019-02-12T06:47:29.169Z,5.20
2019-02-12T06:49:59.131Z,5.30
2019-02-12T06:52:30.945Z,5.20
2019-02-12T06:55:01.170Z,5.00
2019-02-12T06:57:31.883Z,4.80
2019-02-12T07:00:09.476Z,4.20
2019-02-12T07:03:10.974Z,3.90
2019-02-12T07:05:43.543Z,3.60
2019-02-12T07:08:45.474Z,3.60
2019-02-12T07:11:40.341Z,3.50
2019-02-12T07:14:53.782Z,3.30
2019-02-12T07:18:16.645Z,3.50
2019-02-12T07:21:20.341Z,3.60
2019-02-12T07:24:12.781Z,3.70
2019-02-12T07:27:25.249Z,3.60
2019-02-12T07:30:30.256Z,3.70
2019-02-12T07:33:34.946Z,3.80
2019-02-12T07:36:53.197Z,4.20
2019-02-12T07:39:42.335Z,4.30
2019-02-12T07:42:43.168Z,4.40
2019-02-12T07:45:51.425Z,4.30
2019-02-12T07:48:54.111Z,4.40
2019-02-12T07:52:12.317Z,4.60
2019-02-12T07:55:21.180Z,4.70
2019-02-12T07:58:38.157Z,4.80
2019-02-12T08:01:33.416Z,5.00
2019-02-12T08:04:49.145Z,5.10
2019-02-12T08:07:39.600Z,5.20
2019-02-12T08:10:45.464Z,5.20
2019-02-12T08:14:08.598Z,5.40
2019-02-12T08:17:09.868Z,5.60
2019-02-12T08:20:09.344Z,5.70
2019-02-12T08:23:20.367Z,5.70
2019-02-12T08:26:23.401Z,5.80
2019-02-12T08:29:49.541Z,6.00
2019-02-12T08:32:57.528Z,6.20
2019-02-12T08:36:14.587Z,6.30
2019-02-12T08:39:05.866Z,6.40
2019-02-12T08:42:24.981Z,6.60
2019-02-12T08:45:16.139Z,6.70
2019-02-12T08:48:45.328Z,6.80
2019-02-12T08:51:39.567Z,6.90
2019-02-12T08:54:55.114Z,7.00
2019-02-12T08:58:09.097Z,7.10
2019-02-12T09:01:23.277Z,7.30
2019-02-12T09:04:40.069Z,7.30
2019-02-12T09:07:40.493Z,7.30
2019-02-12T09:10:54.475Z,7.40
2019-02-12T09:14:11.566Z,7.30
2019-02-12T09:17:16.874Z,7.30
2019-02-12T09:20:28.269Z,7.30
2019-02-12T09:23:25.992Z,7.30
2019-02-12T09:26:33.519Z,7.40
2019-02-12T09:29:38.554Z,7.50
2019-02-12T09:33:01.898Z,7.50
2019-02-12T09:35:57.860Z,7.60
2019-02-12T09:39:09.053Z,7.70
2019-02-12T09:42:00.898Z,7.70
2019-02-12T09:45:07.431Z,7.80
2019-02-12T09:47:59.330Z,7.80
2019-02-12T09:51:14.959Z,7.90
2019-02-12T09:54:20.982Z,7.90
2019-02-12T09:57:21.654Z,7.90
2019-02-12T10:00:19.188Z,8.10
2019-02-12T10:03:21.704Z,8.00
2019-02-12T10:06:42.089Z,8.00
2019-02-12T10:09:40.648Z,7.90
2019-02-12T10:12:21.665Z,7.80
2019-02-12T10:15:36.073Z,7.80
2019-02-12T10:18:45.684Z,7.70
2019-02-12T10:22:05.933Z,7.80
2019-02-12T10:24:52.872Z,7.80
2019-02-12T10:28:02.502Z,8.00
2019-02-12T10:30:58.146Z,8.00
2019-02-12T10:33:29.028Z,8.20
2019-02-12T10:35:59.501Z,8.30
2019-02-12T10:38:30.130Z,8.40
2019-02-12T10:41:04.056Z,8.40
2019-02-12T10:43:35.173Z,8.40
2019-02-12T10:46:05.620Z,8.40
2019-02-12T10:48:36.407Z,8.50
2019-02-12T10:51:07.434Z,8.60
2019-02-12T10:53:38.040Z,8.50
2019-02-12T10:56:08.650Z,8.50
2019-02-12T10:58:39.293Z,8.60
2019-02-12T11:01:09.332Z,8.70
2019-02-12T11:03:39.279Z,8.70
2019-02-12T11:06:09.683Z,8.70
2019-02-12T11:08:40.652Z,8.80
2019-02-12T11:11:11.084Z,8.70
2019-02-12T11:13:41.359Z,8.70
2019-02-12T11:16:12.013Z,8.80
2019-02-12T11:18:42.074Z,8.80
2019-02-12T11:21:15.607Z,8.90
2019-02-12T11:23:47.041Z,9.00
2019-02-12T11:26:16.858Z,9.10
2019-02-12T11:28:46.990Z,9.20
2019-02-12T11:31:17.185Z,9.20
2019-02-12T11:33:47.198Z,9.30
2019-02-12T11:36:17.548Z,9.40
2019-02-12T11:38:48.030Z,9.40
2019-02-12T11:41:18.102Z,9.40
2019-02-12T11:43:48.402Z,9.50
2019-02-12T11:46:18.760Z,9.70
2019-02-12T11:48:48.941Z,9.80
2019-02-12T11:51:19.194Z,9.80
2019-02-12T11:53:49.542Z,9.80
2019-02-12T11:56:19.190Z,9.90
2019-02-12T11:58:49.347Z,9.90
2019-02-12T12:01:25.343Z,10.00
2019-02-12T12:03:55.536Z,10.00
2019-02-12T12:06:25.615Z,10.00
2019-02-12T12:08:55.981Z,10.10
2019-02-12T12:11:26.366Z,10.20
2019-02-12T12:13:55.959Z,10.20
2019-02-12T12:16:26.205Z,10.20
2019-02-12T12:18:56.375Z,10.20
2019-02-12T12:21:26.408Z,10.10
2019-02-12T12:23:56.607Z,10.00
2019-02-12T12:26:26.540Z,9.90
2019-02-12T12:28:56.639Z,9.90
2019-02-12T12:31:26.843Z,10.00
2019-02-12T12:33:56.910Z,10.00
2019-02-12T12:36:27.037Z,10.00
2019-02-12T12:38:57.219Z,10.10
2019-02-12T12:41:27.206Z,10.20
2019-02-12T12:43:57.578Z,10.20
2019-02-12T12:46:27.992Z,10.20
2019-02-12T12:48:59.243Z,10.20
2019-02-12T12:51:29.394Z,10.30
2019-02-12T12:53:59.703Z,10.40
2019-02-12T12:56:29.506Z,10.40
2019-02-12T12:58:59.711Z,10.50
2019-02-12T13:01:29.702Z,10.50
2019-02-12T13:04:00.400Z,10.50
2019-02-12T13:06:30.742Z,10.50
2019-02-12T13:09:01.071Z,10.50
2019-02-12T13:11:31.621Z,10.50
2019-02-12T13:14:02.495Z,10.60
2019-02-12T13:16:32.776Z,10.50
2019-02-12T13:19:02.701Z,10.50
2019-02-12T13:21:32.568Z,10.60
2019-02-12T13:24:02.644Z,10.70
2019-02-12T13:26:32.498Z,10.70
2019-02-12T13:29:02.191Z,10.90
2019-02-12T13:31:32.603Z,11.00
2019-02-12T13:34:02.995Z,11.10
2019-02-12T13:36:33.034Z,11.10
2019-02-12T13:39:03.578Z,11.00
2019-02-12T13:41:34.519Z,11.10
2019-02-12T13:44:06.161Z,11.20
2019-02-12T13:46:36.274Z,11.10
2019-02-12T13:49:06.477Z,11.10
2019-02-12T13:51:38.362Z,11.10
2019-02-12T13:54:08.528Z,11.20
2019-02-12T13:56:39.244Z,11.20
2019-02-12T13:59:09.755Z,11.20
2019-02-12T14:01:40.678Z,11.20
2019-02-12T14:04:10.573Z,11.20
2019-02-12T14:06:40.620Z,11.20
2019-02-12T14:09:11.135Z,11.20
2019-02-12T14:11:40.986Z,11.30
2019-02-12T14:14:11.186Z,11.30
2019-02-12T14:16:41.506Z,11.40
2019-02-12T14:19:11.593Z,11.40
2019-02-12T14:21:41.514Z,11.40
2019-02-12T14:24:11.688Z,11.40
2019-02-12T14:26:42.380Z,11.40
2019-02-12T14:29:12.449Z,11.40
2019-02-12T14:31:42.984Z,11.40
2019-02-12T14:34:13.099Z,11.40
2019-02-12T14:36:43.190Z,11.40
2019-02-12T14:39:13.648Z,11.40
2019-02-12T14:41:43.975Z,11.40
2019-02-12T14:44:13.778Z,11.40
2019-02-12T14:46:44.142Z,11.40
2019-02-12T14:49:14.291Z,11.40
2019-02-12T14:51:45.628Z,11.40
2019-02-12T14:54:15.945Z,11.40
2019-02-12T14:56:46.180Z,11.50
2019-02-12T14:59:19.354Z,11.50
2019-02-12T15:01:50.592Z,11.60
2019-02-12T15:04:21.742Z,11.70
2019-02-12T15:06:52.594Z,11.60
2019-02-12T15:09:23.085Z,11.70
2019-02-12T15:11:53.507Z,11.70
2019-02-12T15:14:24.072Z,11.70
2019-02-12T15:16:59.926Z,11.60
2019-02-12T15:19:35.384Z,11.70
2019-02-12T15:22:06.381Z,11.60
2019-02-12T15:24:36.686Z,11.60
2019-02-12T15:27:07.355Z,11.70
2019-02-12T15:29:38.630Z,11.60
2019-02-12T15:32:09.362Z,11.60
2019-02-12T15:34:39.256Z,11.60
2019-02-12T15:37:09.752Z,11.50
2019-02-12T15:39:39.805Z,11.50
2019-02-12T15:42:10.154Z,11.50
2019-02-12T15:44:40.279Z,11.30
2019-02-12T15:47:10.303Z,11.30
2019-02-12T15:49:40.651Z,11.20
2019-02-12T15:52:11.317Z,11.20
2019-02-12T15:54:41.527Z,11.10
2019-02-12T15:57:11.261Z,11.10
2019-02-12T15:59:41.406Z,11.10
2019-02-12T16:02:12.027Z,11.10
2019-02-12T16:04:43.147Z,11.10
2019-02-12T16:07:13.605Z,11.00
2019-02-12T16:09:43.553Z,11.00
2019-02-12T16:12:13.614Z,10.90
2019-02-12T16:14:44.504Z,10.80
2019-02-12T16:17:16.076Z,10.80
2019-02-12T16:19:47.012Z,10.70
2019-02-12T16:22:18.127Z,10.70
2019-02-12T16:24:48.890Z,10.70
2019-02-12T16:27:18.947Z,10.60
2019-02-12T16:29:50.470Z,10.50
2019-02-12T16:32:22.606Z,10.50
2019-02-12T16:34:52.355Z,10.50
2019-02-12T16:39:49.925Z,10.40
2019-02-12T16:42:19.665Z,10.20
2019-02-12T16:44:49.233Z,10.20
2019-02-12T16:47:19.037Z,10.10
2019-02-12T16:49:48.889Z,10.00
2019-02-12T16:52:20.835Z,10.00
2019-02-12T16:54:50.897Z,9.90
2019-02-12T16:57:21.911Z,9.90
2019-02-12T16:59:53.213Z,9.80
2019-02-12T17:02:25.184Z,9.70
2019-02-12T17:04:56.143Z,9.70
2019-02-12T17:07:27.580Z,9.50
2019-02-12T17:09:59.536Z,9.50
2019-02-12T17:12:30.350Z,9.50
2019-02-12T17:15:04.112Z,9.50
2019-02-12T17:17:34.883Z,9.50
2019-02-12T17:20:10.323Z,9.80
2019-02-12T17:22:42.888Z,9.60
2019-02-12T17:25:15.166Z,9.50
2019-02-12T17:27:46.073Z,9.40
2019-02-12T17:30:16.587Z,9.50
2019-02-12T17:32:50.545Z,9.40
2019-02-12T17:35:21.486Z,9.30
2019-02-12T17:37:52.311Z,9.20
2019-02-12T17:40:23.529Z,9.10
2019-02-12T17:42:54.408Z,9.20
2019-02-12T17:45:24.852Z,9.20
2019-02-12T17:47:55.388Z,9.10
2019-02-12T17:50:26.154Z,9.10
2019-02-12T17:52:57.240Z,9.20
2019-02-12T17:55:28.924Z,9.10
2019-02-12T17:58:00.462Z,9.20
2019-02-12T18:00:34.875Z,9.20
2019-02-12T18:03:06.028Z,9.10
2019-02-12T18:05:38.176Z,9.00
2019-02-12T18:08:10.184Z,9.00
2019-02-12T18:10:46.473Z,9.00
2019-02-12T18:13:18.467Z,9.10
2019-02-12T18:15:50.175Z,9.00
2019-02-12T18:18:21.326Z,8.90
2019-02-12T18:20:52.347Z,8.90
2019-02-12T18:23:25.440Z,8.80
2019-02-12T18:25:56.558Z,8.70
2019-02-12T18:28:27.348Z,8.60
2019-02-12T18:31:00.350Z,8.60
2019-02-12T18:33:31.134Z,8.70
2019-02-12T18:36:01.672Z,8.70
2019-02-12T18:38:32.994Z,8.70
2019-02-12T18:41:03.824Z,8.60
2019-02-12T18:43:34.972Z,8.40
2019-02-12T18:46:05.990Z,8.40
2019-02-12T18:48:39.771Z,8.20
2019-02-12T18:51:10.882Z,8.20
2019-02-12T18:53:41.910Z,8.20
2019-02-12T18:56:13.261Z,8.20
2019-02-12T18:58:44.088Z,8.20
2019-02-12T19:01:14.993Z,8.20
2019-02-12T19:03:45.969Z,8.10
2019-02-12T19:06:16.601Z,8.10
2019-02-12T19:08:47.525Z,8.00
2019-02-12T19:11:18.333Z,8.00
2019-02-12T19:13:50.126Z,8.00
2019-02-12T19:16:20.974Z,8.00
2019-02-12T19:18:53.441Z,7.90
2019-02-12T19:21:24.521Z,7.90
2019-02-12T19:23:55.313Z,7.80
2019-02-12T19:26:26.404Z,7.80
2019-02-12T19:28:59.873Z,7.90
2019-02-12T19:31:30.490Z,7.70
2019-02-12T19:34:02.587Z,7.70
2019-02-12T19:36:34.570Z,7.80
2019-02-12T19:39:11.787Z,7.90
2019-02-12T19:41:45.873Z,8.00
2019-02-12T19:44:17.021Z,8.00
2019-02-12T19:46:48.033Z,8.00
2019-02-12T19:49:19.183Z,8.00
2019-02-12T19:51:52.404Z,8.00
2019-02-12T19:54:26.378Z,7.90
2019-02-12T19:56:58.457Z,8.00
2019-02-12T19:59:29.348Z,7.80
2019-02-12T20:02:00.115Z,7.70
2019-02-12T20:04:32.563Z,7.70
2019-02-12T20:07:03.333Z,7.70
2019-02-12T20:09:36.073Z,7.70
2019-02-12T20:12:07.242Z,7.70
2019-02-12T20:14:38.098Z,7.70
2019-02-12T20:17:09.359Z,7.60
2019-02-12T20:19:39.926Z,7.60
2019-02-12T20:22:11.085Z,7.60
2019-02-12T20:24:41.927Z,7.50
2019-02-12T20:27:12.523Z,7.50
2019-02-12T20:29:43.741Z,7.60
2019-02-12T20:32:14.614Z,7.60
2019-02-12T20:34:46.181Z,7.70
2019-02-12T20:37:16.986Z,7.70
2019-02-12T20:39:47.756Z,7.70
2019-02-12T20:42:18.994Z,7.80
2019-02-12T20:44:49.755Z,7.80
2019-02-12T20:47:20.742Z,7.80
2019-02-12T20:49:51.952Z,7.80
2019-02-12T20:52:23.005Z,7.60
2019-02-12T20:54:53.741Z,7.60
2019-02-12T20:57:24.819Z,7.60
2019-02-12T20:59:55.386Z,7.60
2019-02-12T21:02:26.196Z,7.60
2019-02-12T21:04:58.963Z,7.60
2019-02-12T21:07:29.578Z,7.60
2019-02-12T21:10:00.517Z,7.60
2019-02-12T21:12:31.173Z,7.60
2019-02-12T21:15:01.871Z,7.60
2019-02-12T21:17:33.148Z,7.50
2019-02-12T21:20:04.071Z,7.50
2019-02-12T21:22:34.524Z,7.60
2019-02-12T21:25:05.167Z,7.70
2019-02-12T21:27:35.885Z,7.80
2019-02-12T21:30:06.960Z,7.90
2019-02-12T21:32:37.319Z,7.90
2019-02-12T21:35:13.210Z,7.70
2019-02-12T21:37:43.758Z,7.70
2019-02-12T21:40:18.916Z,7.70
2019-02-12T21:42:49.231Z,7.60
2019-02-12T21:45:20.240Z,7.60
2019-02-12T21:47:49.769Z,7.50
2019-02-12T21:50:19.440Z,7.50
2019-02-12T21:52:49.544Z,7.50
2019-02-12T21:55:19.740Z,7.50
2019-02-12T21:57:49.888Z,7.40
2019-02-12T22:00:19.768Z,7.30
2019-02-12T22:02:49.415Z,7.30
2019-02-12T22:05:19.857Z,7.20
2019-02-12T22:07:49.844Z,7.10
2019-02-12T22:10:20.305Z,7.10
2019-02-12T22:12:50.930Z,7.00
2019-02-12T22:15:20.670Z,7.10
2019-02-12T22:17:50.437Z,7.10
2019-02-12T22:20:20.038Z,7.10
2019-02-12T22:22:49.749Z,7.00
2019-02-12T22:25:19.830Z,7.00
2019-02-12T22:27:49.644Z,6.90
2019-02-12T22:30:20.235Z,6.80
2019-02-12T22:32:50.142Z,6.80
2019-02-12T22:35:19.902Z,6.80
2019-02-12T22:37:49.594Z,6.80
2019-02-12T22:40:19.568Z,6.40
2019-02-12T22:42:49.531Z,6.10
2019-02-12T22:45:19.809Z,6.10
2019-02-12T22:47:49.696Z,6.10
2019-02-12T22:50:20.141Z,6.10
2019-02-12T22:52:50.009Z,6.10
2019-02-12T22:55:19.776Z,6.10
2019-02-12T22:57:49.979Z,6.10
2019-02-12T23:01:02.683Z,6.00
2019-02-12T23:03:33.000Z,6.00
2019-02-12T23:06:02.805Z,6.00
2019-02-12T23:08:32.749Z,5.90
2019-02-12T23:13:31.930Z,5.70
2019-02-12T23:16:01.659Z,5.50
2019-02-12T23:18:31.267Z,5.60
2019-02-12T23:21:02.172Z,5.50
2019-02-12T23:23:32.339Z,5.60
2019-02-12T23:26:02.912Z,5.30
2019-02-12T23:28:32.693Z,5.30
2019-02-12T23:31:02.844Z,5.10
2019-02-12T23:33:33.113Z,5.00
2019-02-12T23:36:03.033Z,5.00
2019-02-12T23:38:33.050Z,5.00
2019-02-12T23:41:02.908Z,5.20
2019-02-12T23:43:32.998Z,5.20
2019-02-12T23:46:03.033Z,5.10
2019-02-12T23:48:33.014Z,5.10
2019-02-12T23:51:03.185Z,5.10
2019-02-12T23:53:33.173Z,5.10
2019-02-12T23:56:03.011Z,5.00
2019-02-12T23:58:32.932Z,5.10
